Route Details

Aircraft Information
Group: North America Fleet
Types: B738, B752, B762, B763
Route Data
Distance: 2154nm
Duration: 6h 04m
Origin METAR: KBDL 010551Z 02007KT 10SM SCT050 BKN120 OVC210 M04/M13 A3022 RMK AO2 SLP236 T10391128 11022 21044 58012
Dest. METAR: KONT 010553Z 06009KT 10SM CLR 12/M12 A3011 RMK AO2 SLP193 T01221122 10150 20122 53015
Freight Data
(for Feb 1, 2023)
Load Factor:
34%
Manifested Cargo: 21,982lbs
Financial History
Total Freight: 31,302lbs
Average Load: 0lbs/flt
Fuel Used: 31,271lbs
Avg. Fuel Used: 0lbs/flt
Fuel Expense: $18,763
Avg. Fuel Expense: $0
Avg. Fuel Cost: $0/lbs
Total Gross Income: $84,828
Pilot Pay: $239
Total Expenses: $17,890
Total Revenue: $45,724
Average Revenue: $0

Capitol Logistics 332




KBDL
Bradley International Airport
Windsor Locks, Connecticut
KONT
Ontario International Airport
Ontario, California